Time;durP1;ratioP1;P1;durP2;ratioP2;P2;SDS_P1;SDS_P2;PMS_P1;PMS_P2;Temp;Humidity;BMP_temperature;BMP_pressure;BME280_temperature;BME280_humidity;BME280_pressure;Samples;Min_cycle;Max_cycle;Signal;HPM_P1;HPM_P2
2023/09/19 00:00:22;;;;;;;9.40;2.93;;;18.30;32.30;;;;;;4986785;28;21031;-66
2023/09/19 00:02:54;;;;;;;4.80;2.13;;;18.40;32.10;;;;;;4994917;28;20547;-66
2023/09/19 00:05:23;;;;;;;6.80;3.33;;;18.30;32.10;;;;;;4990036;28;20583;-66
2023/09/19 00:07:53;;;;;;;5.90;2.50;;;18.30;32.00;;;;;;4991418;28;20558;-66
2023/09/19 00:10:21;;;;;;;6.00;3.17;;;18.40;32.00;;;;;;4985956;28;20476;-66
2023/09/19 00:12:48;;;;;;;6.10;3.03;;;18.30;32.00;;;;;;4995481;28;20469;-66
2023/09/19 00:15:17;;;;;;;9.70;2.87;;;18.40;32.10;;;;;;4983428;28;21030;-66
2023/09/19 00:17:44;;;;;;;5.60;2.70;;;18.30;32.20;;;;;;4992513;28;20483;-66
2023/09/19 00:20:13;;;;;;;5.97;2.90;;;18.30;32.20;;;;;;4989722;28;20476;-67
2023/09/19 00:22:42;;;;;;;6.00;2.57;;;18.30;32.20;;;;;;4988932;28;20487;-66
2023/09/19 00:25:09;;;;;;;5.20;2.67;;;18.30;32.30;;;;;;4993159;28;20541;-66
2023/09/19 00:27:39;;;;;;;7.17;2.90;;;18.20;32.30;;;;;;4989896;28;20456;-66
2023/09/19 00:30:14;;;;;;;6.83;3.20;;;18.20;32.20;;;;;;4987149;28;20837;-66
2023/09/19 00:32:41;;;;;;;6.33;2.40;;;18.20;32.40;;;;;;4989418;28;20475;-66
2023/09/19 00:35:09;;;;;;;6.03;2.70;;;18.10;32.50;;;;;;4990347;28;20975;-66
2023/09/19 00:37:37;;;;;;;8.13;2.57;;;18.10;32.50;;;;;;4990018;28;20496;-66
2023/09/19 00:40:05;;;;;;;5.53;2.87;;;18.10;32.50;;;;;;4991393;28;20464;-67
2023/09/19 00:42:33;;;;;;;5.57;2.90;;;18.10;32.60;;;;;;4991287;28;20468;-66
2023/09/19 00:45:03;;;;;;;6.30;2.73;;;18.00;32.60;;;;;;4987893;28;20575;-66
2023/09/19 00:47:30;;;;;;;6.33;2.97;;;18.00;32.60;;;;;;4991339;28;20469;-66
2023/09/19 00:49:57;;;;;;;6.60;2.90;;;18.00;32.70;;;;;;4988095;28;20961;-66
2023/09/19 00:52:25;;;;;;;8.27;3.03;;;18.00;32.70;;;;;;4990360;28;20557;-66
2023/09/19 00:54:53;;;;;;;7.13;2.80;;;17.90;32.90;;;;;;4988674;28;21032;-66
2023/09/19 00:57:22;;;;;;;5.20;2.57;;;17.90;32.90;;;;;;4985873;28;20465;-66
2023/09/19 00:59:51;;;;;;;5.40;2.90;;;17.90;32.90;;;;;;4989976;28;20461;-66
2023/09/19 01:02:18;;;;;;;7.33;2.90;;;17.90;33.00;;;;;;4987876;28;20483;-66
2023/09/19 01:04:46;;;;;;;6.50;3.20;;;17.90;33.10;;;;;;4988429;28;20488;-66
2023/09/19 01:07:14;;;;;;;6.53;3.20;;;17.90;33.20;;;;;;4983844;28;20945;-66
2023/09/19 01:09:42;;;;;;;9.03;3.50;;;17.90;33.30;;;;;;4991406;28;20476;-66
2023/09/19 01:12:12;;;;;;;6.10;2.80;;;17.90;33.20;;;;;;4991451;28;20493;-66
2023/09/19 01:14:47;;;;;;;6.43;2.90;;;17.90;33.20;;;;;;4987116;28;20495;-66
2023/09/19 01:17:24;;;;;;;6.50;2.73;;;17.90;33.20;;;;;;4984995;28;20469;-67
2023/09/19 01:22:38;;;;;;;9.40;3.50;;;17.90;33.10;;;;;;4971968;28;20478;-68
2023/09/19 01:25:34;;;;;;;5.60;2.67;;;17.90;33.40;;;;;;4982617;28;20493;-67
2023/09/19 01:28:18;;;;;;;5.03;2.70;;;17.90;33.40;;;;;;4988685;28;20551;-67
2023/09/19 01:30:49;;;;;;;6.67;2.80;;;17.90;33.40;;;;;;4988065;28;20795;-67
2023/09/19 01:33:16;;;;;;;5.67;2.77;;;17.90;33.20;;;;;;4988354;28;20491;-67
2023/09/19 01:35:43;;;;;;;4.53;2.37;;;17.90;33.00;;;;;;4986184;28;20473;-67
2023/09/19 01:38:10;;;;;;;5.10;2.50;;;17.90;33.00;;;;;;4983986;28;21363;-67
2023/09/19 01:40:43;;;;;;;7.93;3.00;;;17.90;33.00;;;;;;4986991;28;20509;-67
2023/09/19 01:43:19;;;;;;;6.03;2.27;;;17.90;32.90;;;;;;4983319;28;20559;-67
2023/09/19 01:45:56;;;;;;;5.60;2.53;;;17.90;33.10;;;;;;4990535;28;20995;-67
2023/09/19 01:48:28;;;;;;;5.67;2.30;;;17.90;33.00;;;;;;4988670;28;20476;-67
2023/09/19 01:51:01;;;;;;;7.00;2.50;;;17.90;32.80;;;;;;4984727;28;20902;-67
2023/09/19 01:53:31;;;;;;;5.20;2.50;;;17.90;32.90;;;;;;4987323;28;20476;-67
2023/09/19 01:55:58;;;;;;;4.63;2.37;;;17.80;32.80;;;;;;4982398;28;20877;-67
2023/09/19 01:58:32;;;;;;;4.73;2.30;;;17.90;33.00;;;;;;4986126;28;20477;-67
2023/09/19 02:01:01;;;;;;;5.90;2.30;;;17.90;33.00;;;;;;4985312;28;20461;-68
2023/09/19 02:03:30;;;;;;;6.27;2.70;;;17.90;33.50;;;;;;4984757;28;20500;-67
2023/09/19 02:05:56;;;;;;;8.70;2.30;;;17.90;32.90;;;;;;4988144;28;20461;-67
2023/09/19 02:08:24;;;;;;;5.53;2.33;;;17.90;32.80;;;;;;4990473;28;20468;-68
2023/09/19 02:10:52;;;;;;;4.87;2.07;;;17.90;32.80;;;;;;4988226;28;20460;-67
2023/09/19 02:13:20;;;;;;;8.87;3.13;;;17.90;32.70;;;;;;4984215;28;20871;-68
2023/09/19 02:15:47;;;;;;;4.73;2.20;;;17.90;32.70;;;;;;4987850;28;20479;-68
2023/09/19 02:18:15;;;;;;;9.20;2.57;;;17.90;32.60;;;;;;4988900;28;20468;-67
2023/09/19 02:20:42;;;;;;;6.60;2.93;;;17.90;32.70;;;;;;4988139;28;21001;-67
2023/09/19 02:23:11;;;;;;;5.77;2.10;;;17.90;32.60;;;;;;4987780;28;20476;-67
2023/09/19 02:25:37;;;;;;;7.10;2.70;;;17.90;32.70;;;;;;4984284;28;20467;-68
2023/09/19 02:28:05;;;;;;;9.50;2.40;;;17.80;32.60;;;;;;4991386;28;20469;-68
2023/09/19 02:30:32;;;;;;;5.83;2.10;;;17.80;32.70;;;;;;4982841;28;20481;-68
2023/09/19 02:33:01;;;;;;;7.87;2.13;;;17.80;32.80;;;;;;4985734;28;20480;-68
2023/09/19 02:35:32;;;;;;;5.23;2.20;;;17.80;32.90;;;;;;4985095;28;20806;-67
2023/09/19 02:37:59;;;;;;;4.97;3.00;;;17.80;32.90;;;;;;4988070;28;20972;-68
2023/09/19 02:40:27;;;;;;;6.60;2.50;;;17.80;32.90;;;;;;4986138;28;20544;-68
2023/09/19 02:42:56;;;;;;;6.27;2.50;;;17.80;32.80;;;;;;4984526;28;20976;-68
2023/09/19 02:45:23;;;;;;;4.50;2.00;;;17.80;32.80;;;;;;4983747;28;20469;-68
2023/09/19 02:47:50;;;;;;;8.50;2.57;;;17.80;32.80;;;;;;4986726;28;20932;-68
2023/09/19 02:50:17;;;;;;;9.77;2.53;;;17.80;32.70;;;;;;4986593;28;20465;-68
2023/09/19 02:52:47;;;;;;;6.30;2.20;;;17.80;32.80;;;;;;4988806;28;20821;-68
2023/09/19 02:55:17;;;;;;;6.50;3.10;;;17.80;32.70;;;;;;4986385;28;20562;-68
2023/09/19 02:57:47;;;;;;;5.80;2.57;;;17.80;32.70;;;;;;4987837;28;21005;-68
2023/09/19 03:00:15;;;;;;;4.90;2.10;;;17.80;32.80;;;;;;4985430;28;20508;-67
2023/09/19 03:02:42;;;;;;;7.10;2.83;;;17.80;32.80;;;;;;4986124;28;20568;-68
2023/09/19 03:05:11;;;;;;;7.03;2.40;;;17.80;33.00;;;;;;4984204;28;20520;-67
2023/09/19 03:07:38;;;;;;;5.87;2.20;;;17.80;32.90;;;;;;4987207;28;20464;-68
2023/09/19 03:10:08;;;;;;;6.23;2.60;;;17.80;32.90;;;;;;4987257;28;20839;-67
2023/09/19 03:12:35;;;;;;;5.80;2.47;;;17.80;32.90;;;;;;4982379;28;20913;-67
2023/09/19 03:15:01;;;;;;;7.63;2.70;;;17.80;32.90;;;;;;4986134;28;20488;-69
2023/09/19 03:17:28;;;;;;;7.70;2.50;;;17.90;33.00;;;;;;4985769;28;20475;-68
2023/09/19 03:19:55;;;;;;;7.83;2.60;;;17.80;33.00;;;;;;4984672;28;20473;-67
2023/09/19 03:22:22;;;;;;;5.63;2.63;;;17.80;32.90;;;;;;4986375;28;20457;-67
2023/09/19 03:24:48;;;;;;;8.67;2.60;;;17.80;33.50;;;;;;4988354;28;20576;-67
2023/09/19 03:27:16;;;;;;;5.30;2.40;;;17.80;32.80;;;;;;4989835;28;20563;-68
2023/09/19 03:29:43;;;;;;;8.30;2.70;;;17.90;32.90;;;;;;4986875;28;20500;-69
2023/09/19 03:32:10;;;;;;;11.03;2.90;;;17.90;32.70;;;;;;4989300;28;20479;-68
2023/09/19 03:34:38;;;;;;;4.90;2.10;;;17.90;32.70;;;;;;4981041;28;20495;-68
2023/09/19 03:37:05;;;;;;;6.47;2.50;;;17.90;32.70;;;;;;4981337;28;20469;-67
2023/09/19 03:39:32;;;;;;;5.50;2.60;;;17.90;32.70;;;;;;4986031;28;20464;-67
2023/09/19 03:41:58;;;;;;;4.63;2.17;;;17.90;32.60;;;;;;4988839;28;20564;-67
2023/09/19 03:44:26;;;;;;;6.23;2.30;;;17.90;32.60;;;;;;4985152;28;20526;-67
2023/09/19 03:46:55;;;;;;;5.23;2.00;;;17.90;32.60;;;;;;4987239;28;20468;-67
2023/09/19 03:49:22;;;;;;;4.83;2.20;;;17.90;32.50;;;;;;4983027;28;20474;-67
2023/09/19 03:51:48;;;;;;;6.70;2.53;;;17.80;32.50;;;;;;4985369;28;20489;-67
2023/09/19 03:54:16;;;;;;;7.10;2.17;;;17.80;32.40;;;;;;4993014;28;20503;-69
2023/09/19 03:56:43;;;;;;;5.13;1.93;;;17.80;33.10;;;;;;4977487;28;20541;-68
2023/09/19 03:59:10;;;;;;;5.10;2.50;;;17.70;32.50;;;;;;4984115;28;20473;-69
2023/09/19 04:01:39;;;;;;;5.77;2.60;;;17.70;32.50;;;;;;4986015;28;20583;-69
2023/09/19 04:04:08;;;;;;;5.27;1.90;;;17.60;32.60;;;;;;4988513;28;20492;-69
2023/09/19 04:06:35;;;;;;;6.93;2.90;;;17.60;32.50;;;;;;4989096;28;20468;-69
2023/09/19 04:09:03;;;;;;;6.83;2.27;;;17.50;32.70;;;;;;4996298;28;20544;-68
2023/09/19 04:11:30;;;;;;;5.40;2.67;;;17.50;32.70;;;;;;4991640;28;20461;-69
2023/09/19 04:13:56;;;;;;;5.10;2.30;;;17.40;32.80;;;;;;4990816;28;21085;-69
2023/09/19 04:16:23;;;;;;;5.63;2.10;;;17.40;33.00;;;;;;5003451;28;20469;-68
2023/09/19 04:18:51;;;;;;;5.80;2.57;;;17.40;33.00;;;;;;5005609;28;20464;-69
2023/09/19 04:21:19;;;;;;;5.33;2.20;;;17.40;33.20;;;;;;4992242;28;20495;-69
2023/09/19 04:23:45;;;;;;;5.90;2.27;;;17.40;33.10;;;;;;4990645;28;20477;-69
2023/09/19 04:26:13;;;;;;;4.77;2.00;;;17.50;33.10;;;;;;4991633;28;20470;-69
2023/09/19 04:28:40;;;;;;;5.20;2.33;;;17.40;33.10;;;;;;4991077;28;20500;-68
2023/09/19 04:31:08;;;;;;;5.10;2.30;;;17.50;33.10;;;;;;4990133;28;20525;-69
2023/09/19 04:33:35;;;;;;;5.93;2.60;;;17.50;33.10;;;;;;4984870;28;20785;-68
2023/09/19 04:36:05;;;;;;;5.07;2.60;;;17.50;33.10;;;;;;4983762;28;20578;-69
2023/09/19 04:38:32;;;;;;;5.70;2.50;;;17.50;33.00;;;;;;4995098;28;20488;-68
2023/09/19 04:40:59;;;;;;;5.07;2.20;;;17.50;32.90;;;;;;4990921;28;20469;-68
2023/09/19 04:43:26;;;;;;;8.93;2.03;;;17.50;32.80;;;;;;4989072;28;20535;-68
2023/09/19 04:45:55;;;;;;;5.67;2.00;;;17.50;33.20;;;;;;4992616;28;20461;-68
2023/09/19 04:48:23;;;;;;;5.50;2.43;;;17.50;32.60;;;;;;4991775;28;20465;-69
2023/09/19 04:50:50;;;;;;;5.80;2.50;;;17.60;32.40;;;;;;4987995;28;20560;-68
2023/09/19 04:53:20;;;;;;;8.83;2.60;;;17.60;32.40;;;;;;4989072;28;20572;-68
2023/09/19 04:55:50;;;;;;;5.03;2.30;;;17.60;32.40;;;;;;4990498;28;20464;-68
2023/09/19 04:58:17;;;;;;;5.07;1.87;;;17.60;32.20;;;;;;4990994;28;20460;-68
2023/09/19 05:00:44;;;;;;;7.50;2.60;;;17.60;32.20;;;;;;4993184;28;20523;-69
2023/09/19 05:03:11;;;;;;;7.20;2.50;;;17.60;32.30;;;;;;4991412;28;20532;-69
2023/09/19 05:05:38;;;;;;;4.77;2.20;;;17.60;32.30;;;;;;4991749;28;20465;-68
2023/09/19 05:08:06;;;;;;;4.70;1.90;;;17.60;32.20;;;;;;4991272;28;20489;-68
2023/09/19 05:10:34;;;;;;;4.80;2.30;;;17.70;32.10;;;;;;4980056;28;20469;-69
2023/09/19 05:13:02;;;;;;;6.50;2.07;;;17.70;32.00;;;;;;4988656;28;20488;-68
2023/09/19 05:15:29;;;;;;;5.67;1.90;;;17.70;32.10;;;;;;4990999;28;20464;-68
2023/09/19 05:17:55;;;;;;;4.50;2.10;;;17.70;31.50;;;;;;4989358;28;20479;-69
2023/09/19 05:20:29;;;;;;;7.27;2.10;;;17.70;31.40;;;;;;4987866;28;20478;-69
2023/09/19 05:23:02;;;;;;;6.27;1.70;;;17.80;31.20;;;;;;4987595;28;20460;-68
2023/09/19 05:25:30;;;;;;;5.17;1.90;;;17.80;31.10;;;;;;4987976;28;20962;-69
2023/09/19 05:28:03;;;;;;;4.47;1.70;;;17.80;30.90;;;;;;4991029;28;20492;-68
2023/09/19 05:30:30;;;;;;;7.47;2.80;;;17.80;30.90;;;;;;4989816;28;20471;-68
2023/09/19 05:32:57;;;;;;;4.40;1.60;;;17.80;30.70;;;;;;4989868;28;20489;-69
2023/09/19 05:35:24;;;;;;;5.03;2.37;;;17.90;30.60;;;;;;4987272;28;20507;-68
2023/09/19 05:37:52;;;;;;;4.83;1.73;;;17.90;30.50;;;;;;4988870;28;20465;-69
2023/09/19 05:40:18;;;;;;;5.07;2.17;;;17.90;30.60;;;;;;4987572;28;20943;-69
2023/09/19 05:42:45;;;;;;;5.37;1.80;;;17.90;30.40;;;;;;4982117;28;20472;-69
2023/09/19 05:45:14;;;;;;;6.13;2.20;;;17.90;30.20;;;;;;4995012;28;20476;-69
2023/09/19 05:47:44;;;;;;;5.03;1.63;;;18.00;30.10;;;;;;4990237;28;20460;-69
2023/09/19 05:50:11;;;;;;;4.10;1.47;;;18.00;30.00;;;;;;4984824;28;20464;-68
2023/09/19 05:52:38;;;;;;;7.10;1.73;;;18.00;29.80;;;;;;4987503;28;20507;-69
2023/09/19 05:55:07;;;;;;;6.57;1.77;;;18.10;29.70;;;;;;4986287;28;20488;-68
2023/09/19 05:57:34;;;;;;;4.70;1.40;;;18.10;29.20;;;;;;4990765;28;20464;-68
2023/09/19 06:00:01;;;;;;;3.60;1.20;;;18.20;29.10;;;;;;4990121;28;20465;-68
2023/09/19 06:02:30;;;;;;;4.40;1.67;;;18.20;28.90;;;;;;4988948;28;20468;-69
2023/09/19 06:04:57;;;;;;;4.33;1.37;;;18.20;28.90;;;;;;4990398;28;20543;-69
2023/09/19 06:07:25;;;;;;;3.90;1.37;;;18.20;28.70;;;;;;4989241;28;20469;-69
2023/09/19 06:09:53;;;;;;;3.93;1.53;;;18.30;28.50;;;;;;4988102;28;20498;-69
2023/09/19 06:12:20;;;;;;;4.20;1.70;;;18.40;27.90;;;;;;4988902;28;20480;-69
2023/09/19 06:14:47;;;;;;;5.87;1.47;;;18.50;27.90;;;;;;4988885;28;20492;-69
2023/09/19 06:17:14;;;;;;;5.27;1.90;;;18.60;27.20;;;;;;4989426;28;20467;-68
2023/09/19 06:19:47;;;;;;;4.43;1.60;;;18.70;26.70;;;;;;4989537;28;20457;-69
2023/09/19 06:22:16;;;;;;;5.87;1.80;;;18.80;25.90;;;;;;4986197;28;20484;-69
2023/09/19 06:24:43;;;;;;;4.63;1.87;;;18.90;25.70;;;;;;4988870;28;20488;-69
2023/09/19 06:27:09;;;;;;;5.30;1.43;;;18.90;25.30;;;;;;4986790;28;20464;-69
2023/09/19 06:29:37;;;;;;;3.97;1.27;;;18.90;25.40;;;;;;4986237;28;20465;-69
2023/09/19 06:32:07;;;;;;;5.10;1.50;;;19.10;26.10;;;;;;4988430;28;20469;-69
2023/09/19 06:34:34;;;;;;;5.00;1.20;;;19.80;25.10;;;;;;4979267;28;20500;-70
2023/09/19 06:37:03;;;;;;;4.60;1.53;;;20.80;22.40;;;;;;4986114;28;20472;-69
2023/09/19 06:39:31;;;;;;;4.83;1.63;;;22.20;19.00;;;;;;4986068;28;20460;-70
2023/09/19 06:41:58;;;;;;;3.50;1.10;;;23.90;15.00;;;;;;4992265;28;20467;-69
2023/09/19 06:44:25;;;;;;;5.43;1.10;;;25.40;9.80;;;;;;4982772;28;20584;-69
2023/09/19 06:46:52;;;;;;;3.87;1.40;;;25.10;9.30;;;;;;4987392;28;20551;-71
2023/09/19 06:49:19;;;;;;;5.67;1.47;;;24.50;10.30;;;;;;4988715;28;20461;-69
2023/09/19 06:51:46;;;;;;;5.13;1.57;;;24.00;10.80;;;;;;4984540;28;20457;-70
2023/09/19 06:54:14;;;;;;;4.33;1.33;;;23.60;11.40;;;;;;4988315;28;20496;-70
2023/09/19 06:56:41;;;;;;;4.50;1.50;;;23.40;12.00;;;;;;4987716;28;20456;-69
2023/09/19 06:59:08;;;;;;;4.90;1.50;;;23.30;12.30;;;;;;4988936;28;20621;-69
2023/09/19 07:01:37;;;;;;;4.10;1.53;;;23.70;12.30;;;;;;4985199;28;20476;-68
2023/09/19 07:04:05;;;;;;;3.40;1.00;;;25.70;9.00;;;;;;4986446;28;20499;-68
2023/09/19 07:06:31;;;;;;;4.60;1.40;;;27.50;5.40;;;;;;4986615;28;20514;-68
2023/09/19 07:08:58;;;;;;;6.90;2.17;;;27.80;3.00;;;;;;4994779;28;20455;-69
2023/09/19 07:11:26;;;;;;;4.17;1.50;;;28.40;2.20;;;;;;4986182;28;20456;-69
2023/09/19 07:13:53;;;;;;;4.30;1.40;;;29.80;1.00;;;;;;4986600;28;20495;-69
2023/09/19 07:16:29;;;;;;;5.70;1.70;;;31.80;1.00;;;;;;4999389;28;20465;-68
2023/09/19 07:18:57;;;;;;;3.47;1.40;;;33.70;1.00;;;;;;5005420;28;20465;-69
2023/09/19 07:21:24;;;;;;;3.70;1.50;;;34.30;1.00;;;;;;4999255;28;20464;-69
2023/09/19 07:23:50;;;;;;;6.20;1.43;;;35.80;1.00;;;;;;4984058;28;21013;-69
2023/09/19 07:26:17;;;;;;;3.60;1.43;;;37.90;1.00;;;;;;4987589;28;20449;-68
2023/09/19 07:28:45;;;;;;;3.70;1.00;;;39.60;1.00;;;;;;4988824;28;20457;-70
2023/09/19 07:31:14;;;;;;;5.07;1.60;;;38.80;1.00;;;;;;4987608;28;20468;-69
2023/09/19 07:33:41;;;;;;;4.60;1.63;;;37.70;1.00;;;;;;4984456;28;20485;-69
2023/09/19 07:36:13;;;;;;;4.37;1.70;;;36.50;1.00;;;;;;4991181;28;20887;-68
2023/09/19 07:38:40;;;;;;;5.53;1.20;;;35.30;1.00;;;;;;4987204;28;20471;-69
2023/09/19 07:41:08;;;;;;;3.30;1.20;;;34.30;1.00;;;;;;4989687;28;20473;-69
2023/09/19 07:43:35;;;;;;;4.93;1.30;;;34.90;1.00;;;;;;4991812;28;20572;-69
2023/09/19 07:46:07;;;;;;;3.80;1.10;;;36.20;1.00;;;;;;4987615;28;20464;-70
2023/09/19 07:48:34;;;;;;;3.93;1.27;;;36.70;1.00;;;;;;4985589;28;20491;-70
2023/09/19 07:51:03;;;;;;;3.67;1.40;;;36.60;1.00;;;;;;4992333;28;20536;-70
2023/09/19 07:53:31;;;;;;;3.83;1.17;;;36.20;1.00;;;;;;4991891;28;20569;-70
2023/09/19 07:56:03;;;;;;;3.77;1.40;;;36.00;1.00;;;;;;4991825;28;20575;-70
2023/09/19 07:58:33;;;;;;;3.50;1.13;;;36.10;1.00;;;;;;4990665;28;20468;-70
2023/09/19 08:01:06;;;;;;;3.80;1.00;;;36.30;1.00;;;;;;4989811;28;20472;-69
2023/09/19 08:03:33;;;;;;;4.73;1.30;;;36.30;1.00;;;;;;4989710;28;20487;-70
2023/09/19 08:06:00;;;;;;;3.13;0.93;;;36.00;1.00;;;;;;4991009;28;20496;-69
2023/09/19 08:08:27;;;;;;;3.00;1.00;;;35.80;1.00;;;;;;4991516;28;20531;-69
2023/09/19 08:10:55;;;;;;;5.10;1.30;;;35.90;1.00;;;;;;4989840;28;20510;-69
2023/09/19 08:13:22;;;;;;;4.40;0.93;;;35.80;1.00;;;;;;4991067;28;20512;-70
2023/09/19 08:15:50;;;;;;;3.93;1.00;;;34.50;1.00;;;;;;4991681;28;20486;-69
2023/09/19 08:18:18;;;;;;;4.33;1.30;;;33.70;1.00;;;;;;4991530;28;20461;-69
2023/09/19 08:20:50;;;;;;;4.30;1.20;;;32.70;1.00;;;;;;4991921;28;20464;-71
2023/09/19 08:23:18;;;;;;;4.20;1.37;;;32.10;1.00;;;;;;4991446;28;20860;-70
2023/09/19 08:25:45;;;;;;;3.80;1.20;;;32.50;1.00;;;;;;4992151;28;20461;-70
2023/09/19 08:28:17;;;;;;;4.30;1.30;;;33.30;1.00;;;;;;4989745;28;20487;-69
2023/09/19 08:30:44;;;;;;;4.10;1.40;;;34.00;1.00;;;;;;4986816;28;20470;-69
2023/09/19 08:33:11;;;;;;;5.23;1.47;;;35.30;1.00;;;;;;4993063;28;20484;-69
2023/09/19 08:35:39;;;;;;;3.20;1.07;;;37.00;1.00;;;;;;5022066;23;21031;-67
2023/09/19 08:38:06;;;;;;;4.40;1.80;;;38.70;1.00;;;;;;5009372;28;20464;-67
2023/09/19 08:40:34;;;;;;;5.67;1.17;;;39.90;1.00;;;;;;5010755;28;20471;-67
2023/09/19 08:43:01;;;;;;;3.47;1.13;;;41.10;1.00;;;;;;5010352;28;20488;-67
2023/09/19 08:45:28;;;;;;;4.67;1.33;;;41.00;1.00;;;;;;5008503;28;20934;-66
2023/09/19 08:48:05;;;;;;;3.13;1.10;;;40.90;1.00;;;;;;5004519;28;20463;-67
2023/09/19 08:50:31;;;;;;;3.93;1.10;;;40.30;1.00;;;;;;5003747;28;20455;-67
2023/09/19 08:53:02;;;;;;;2.97;0.80;;;40.10;1.00;;;;;;5009596;28;20464;-67
2023/09/19 08:55:30;;;;;;;4.30;1.00;;;39.70;1.00;;;;;;5008863;28;20853;-65
2023/09/19 08:58:01;;;;;;;8.17;1.67;;;39.80;1.00;;;;;;5010091;28;20478;-65
2023/09/19 09:00:29;;;;;;;4.47;1.30;;;40.30;1.00;;;;;;5009631;28;20487;-65
2023/09/19 09:02:57;;;;;;;4.90;1.00;;;39.40;1.00;;;;;;5007303;28;20546;-65
2023/09/19 09:05:26;;;;;;;7.27;1.47;;;39.00;1.00;;;;;;5003209;28;20463;-65
2023/09/19 09:07:54;;;;;;;3.80;1.20;;;39.50;1.00;;;;;;5009398;28;20456;-65
2023/09/19 09:10:22;;;;;;;4.57;1.00;;;40.90;1.00;;;;;;5009237;28;20474;-65
2023/09/19 09:12:51;;;;;;;4.10;0.90;;;40.40;1.00;;;;;;5009412;28;20467;-65
2023/09/19 09:15:23;;;;;;;3.83;1.23;;;39.10;1.00;;;;;;5005829;28;20488;-65
2023/09/19 09:17:50;;;;;;;4.27;1.10;;;37.40;1.00;;;;;;5009914;28;20463;-65
2023/09/19 09:20:18;;;;;;;4.30;1.40;;;37.70;1.00;;;;;;5007239;28;20492;-65
2023/09/19 09:22:53;;;;;;;3.33;1.30;;;38.20;1.00;;;;;;5008878;28;20464;-65
2023/09/19 09:25:23;;;;;;;3.53;1.20;;;37.80;1.00;;;;;;5009124;28;20956;-65
2023/09/19 09:28:00;;;;;;;4.03;1.10;;;37.80;1.00;;;;;;5009083;28;20463;-66
2023/09/19 09:30:34;;;;;;;3.70;1.17;;;37.70;1.00;;;;;;5009209;28;20456;-65
2023/09/19 09:33:10;;;;;;;4.40;1.10;;;36.30;1.00;;;;;;4998416;28;20457;-65
2023/09/19 09:35:38;;;;;;;3.30;1.00;;;34.80;1.00;;;;;;5008258;28;20463;-65
2023/09/19 09:38:08;;;;;;;4.80;1.30;;;33.70;1.00;;;;;;5008777;28;20464;-65
2023/09/19 09:40:48;;;;;;;3.07;0.90;;;32.90;1.00;;;;;;5004033;28;20448;-66
2023/09/19 09:43:29;;;;;;;3.60;1.30;;;32.10;1.00;;;;;;5007843;28;20499;-65
2023/09/19 09:46:54;;;;;;;4.00;1.20;;;32.10;1.00;;;;;;5008647;28;21006;-65
2023/09/19 09:49:18;;;;;;;3.50;1.10;;;31.40;1.00;;;;;;5004103;28;20534;-65
2023/09/19 09:51:48;;;;;;;3.80;1.20;;;30.50;1.00;;;;;;5003143;28;20464;-65
2023/09/19 09:54:16;;;;;;;3.60;1.27;;;29.70;1.00;;;;;;5006295;28;20484;-65
2023/09/19 09:56:58;;;;;;;5.60;1.17;;;29.00;1.00;;;;;;5004034;28;20976;-65
2023/09/19 09:59:47;;;;;;;3.57;1.27;;;28.20;1.00;;;;;;5010219;28;20522;-64
2023/09/19 10:02:16;;;;;;;3.87;1.10;;;27.30;1.00;;;;;;5006715;28;20464;-64
2023/09/19 10:04:51;;;;;;;4.70;1.30;;;26.60;1.00;;;;;;5007939;28;20471;-64
2023/09/19 10:07:32;;;;;;;4.13;1.20;;;25.90;1.00;;;;;;5008739;28;20538;-65
2023/09/19 10:10:11;;;;;;;3.47;1.03;;;25.40;1.00;;;;;;5007149;28;20452;-65
2023/09/19 10:12:43;;;;;;;7.13;1.80;;;25.00;1.00;;;;;;5006649;28;21010;-65
2023/09/19 10:15:16;;;;;;;3.80;1.17;;;24.60;1.10;;;;;;5007430;28;20510;-65
2023/09/19 10:17:45;;;;;;;4.70;1.10;;;24.40;2.50;;;;;;5002909;28;20491;-65
2023/09/19 10:20:35;;;;;;;3.30;0.90;;;24.40;2.80;;;;;;5008128;28;20474;-65
2023/09/19 10:23:09;;;;;;;4.60;0.90;;;25.70;2.20;;;;;;5004110;28;20515;-65
2023/09/19 10:25:38;;;;;;;4.40;0.90;;;30.00;1.00;;;;;;5004401;28;20463;-65
2023/09/19 10:28:10;;;;;;;3.37;0.83;;;33.10;1.00;;;;;;5007685;28;20470;-65
2023/09/19 10:30:41;;;;;;;3.30;0.77;;;35.40;1.00;;;;;;5006248;28;20544;-65
2023/09/19 10:33:09;;;;;;;3.37;1.20;;;37.00;1.00;;;;;;5008343;28;20467;-65
2023/09/19 10:35:40;;;;;;;6.20;1.00;;;38.00;1.00;;;;;;4999218;28;20579;-65
2023/09/19 10:38:08;;;;;;;4.23;0.80;;;37.70;1.00;;;;;;5008191;28;20967;-65
2023/09/19 10:40:36;;;;;;;3.50;1.20;;;36.50;1.00;;;;;;5009172;28;21016;-65
2023/09/19 10:43:05;;;;;;;4.07;0.93;;;34.80;1.00;;;;;;5008610;28;20463;-65
2023/09/19 10:45:33;;;;;;;4.50;0.83;;;33.20;1.00;;;;;;5006025;28;20447;-65
2023/09/19 10:48:03;;;;;;;3.23;0.80;;;31.90;1.00;;;;;;5008381;28;20867;-65
2023/09/19 10:50:36;;;;;;;3.03;0.90;;;30.80;1.00;;;;;;5008001;28;20478;-65
2023/09/19 10:53:08;;;;;;;3.87;1.40;;;30.60;1.00;;;;;;5007828;28;20463;-65
2023/09/19 10:55:36;;;;;;;3.40;0.90;;;32.60;1.00;;;;;;5005990;28;20607;-65
2023/09/19 10:58:10;;;;;;;3.67;0.90;;;34.20;1.00;;;;;;5009087;28;21049;-65
2023/09/19 11:00:52;;;;;;;4.97;1.40;;;34.50;1.00;;;;;;5003540;28;20474;-65
2023/09/19 11:03:23;;;;;;;4.57;1.20;;;35.30;1.00;;;;;;5006042;28;20529;-65
2023/09/19 11:06:09;;;;;;;6.07;1.27;;;35.50;1.00;;;;;;5005373;28;21173;-65
2023/09/19 11:09:21;;;;;;;4.60;1.10;;;35.90;1.00;;;;;;5006732;28;20459;-65
2023/09/19 11:11:53;;;;;;;3.30;1.13;;;36.00;1.00;;;;;;5007335;28;20554;-66
2023/09/19 11:14:30;;;;;;;4.17;1.50;;;34.30;1.00;;;;;;5011564;28;20495;-65
2023/09/19 11:17:33;;;;;;;3.60;0.80;;;34.70;1.00;;;;;;5011023;28;20459;-65
2023/09/19 11:20:41;;;;;;;3.70;1.10;;;34.60;1.00;;;;;;5009826;28;20463;-65
2023/09/19 11:23:31;;;;;;;3.43;1.10;;;34.80;1.00;;;;;;5009385;28;20477;-65
2023/09/19 11:25:58;;;;;;;3.43;1.03;;;34.70;1.00;;;;;;4991855;28;20976;-65
2023/09/19 11:28:36;;;;;;;3.20;1.10;;;34.20;1.00;;;;;;5010455;28;20478;-65
2023/09/19 11:31:59;;;;;;;3.40;1.10;;;32.60;1.00;;;;;;5010266;28;20525;-65
2023/09/19 11:34:48;;;;;;;5.70;1.70;;;31.50;1.00;;;;;;5008299;28;20488;-65
2023/09/19 11:38:06;;;;;;;3.00;0.83;;;30.40;1.00;;;;;;5011020;28;20591;-65
2023/09/19 11:40:35;;;;;;;3.50;1.00;;;29.50;1.00;;;;;;5004152;28;20460;-64
2023/09/19 11:43:33;;;;;;;4.07;0.90;;;28.80;1.00;;;;;;5006501;28;20455;-65
2023/09/19 11:46:07;;;;;;;3.40;0.90;;;28.30;1.00;;;;;;5002854;28;20455;-65
2023/09/19 11:48:38;;;;;;;5.07;1.23;;;28.10;1.00;;;;;;5004877;28;20538;-66
2023/09/19 11:51:19;;;;;;;4.93;1.33;;;27.90;1.00;;;;;;5010773;28;20459;-64
2023/09/19 11:53:48;;;;;;;3.93;1.23;;;27.70;1.00;;;;;;5010851;28;20530;-65
2023/09/19 11:56:17;;;;;;;4.43;1.00;;;27.50;1.00;;;;;;5009781;28;20463;-67
2023/09/19 11:58:44;;;;;;;4.30;1.17;;;27.40;1.00;;;;;;5007859;28;20466;-67
2023/09/19 12:01:19;;;;;;;3.93;0.83;;;27.20;1.00;;;;;;5009388;28;20471;-67
2023/09/19 12:03:49;;;;;;;3.90;1.33;;;26.90;1.00;;;;;;5011192;28;20562;-67
2023/09/19 12:06:16;;;;;;;3.40;1.10;;;26.70;1.00;;;;;;5010796;28;20470;-67
2023/09/19 12:08:46;;;;;;;3.70;1.10;;;26.60;1.00;;;;;;5011393;28;20459;-67
2023/09/19 12:11:16;;;;;;;3.60;1.10;;;26.60;1.00;;;;;;5009693;28;20499;-67
2023/09/19 12:13:45;;;;;;;3.40;1.20;;;26.50;1.00;;;;;;5010658;28;20867;-67
2023/09/19 12:16:16;;;;;;;3.67;1.20;;;26.40;1.00;;;;;;5010922;28;20618;-67
2023/09/19 12:18:46;;;;;;;3.37;1.20;;;26.30;1.00;;;;;;5010378;28;20455;-67
2023/09/19 12:21:23;;;;;;;4.33;1.10;;;26.10;1.00;;;;;;5000270;28;20518;-67
2023/09/19 12:24:05;;;;;;;3.70;1.47;;;26.00;1.00;;;;;;5008117;28;20479;-67
2023/09/19 12:26:40;;;;;;;3.40;1.17;;;25.90;1.00;;;;;;5009499;28;20466;-67
2023/09/19 12:29:13;;;;;;;3.30;1.03;;;25.70;1.00;;;;;;5011298;28;20490;-67
2023/09/19 12:31:50;;;;;;;3.87;1.10;;;25.60;1.00;;;;;;5009429;28;20491;-67
2023/09/19 12:34:19;;;;;;;4.03;1.20;;;25.60;1.00;;;;;;5006794;28;20496;-67
2023/09/19 12:36:46;;;;;;;4.07;1.20;;;25.50;1.00;;;;;;5010543;28;20467;-67
2023/09/19 12:39:24;;;;;;;3.90;1.60;;;25.40;1.00;;;;;;5009546;28;20463;-67
2023/09/19 12:41:53;;;;;;;3.30;1.00;;;25.30;1.00;;;;;;5008467;28;20460;-67
2023/09/19 12:44:20;;;;;;;3.87;1.00;;;25.40;1.00;;;;;;5007908;28;20812;-67
2023/09/19 12:46:47;;;;;;;3.27;0.90;;;25.40;1.00;;;;;;5008519;28;20455;-67
2023/09/19 12:49:18;;;;;;;3.93;1.20;;;25.30;1.00;;;;;;5007544;28;20479;-67
2023/09/19 12:51:46;;;;;;;4.23;1.17;;;25.20;1.00;;;;;;5001630;28;20460;-67
2023/09/19 12:54:14;;;;;;;4.93;1.50;;;25.10;1.00;;;;;;5009380;28;20483;-67
2023/09/19 12:56:44;;;;;;;3.90;1.00;;;25.10;1.00;;;;;;5010574;28;20543;-67
2023/09/19 12:59:14;;;;;;;3.80;1.10;;;25.00;1.00;;;;;;5003665;28;20468;-67
2023/09/19 13:01:46;;;;;;;5.50;2.00;;;24.90;1.00;;;;;;5008374;28;20472;-67
2023/09/19 13:04:19;;;;;;;4.27;1.37;;;24.80;1.00;;;;;;5009177;28;20477;-67
2023/09/19 13:06:48;;;;;;;3.37;1.13;;;24.70;1.00;;;;;;5005063;28;20514;-67
2023/09/19 13:09:15;;;;;;;3.90;1.20;;;24.60;1.00;;;;;;5010014;28;20463;-67